createdAt,value
2023-02-15T00:01:54.339Z,100614.06
2023-02-15T00:04:22.981Z,100612.50
2023-02-15T00:06:50.564Z,100615.66
2023-02-15T00:09:17.544Z,100599.09
2023-02-15T00:11:46.196Z,100610.78
2023-02-15T00:14:20.352Z,100606.41
2023-02-15T00:16:48.459Z,100600.56
2023-02-15T00:19:17.191Z,100592.03
2023-02-15T00:21:44.848Z,100605.63
2023-02-15T00:24:13.982Z,100614.72
2023-02-15T00:26:42.267Z,100612.31
2023-02-15T00:29:10.747Z,100598.44
2023-02-15T00:31:38.147Z,100600.25
2023-02-15T00:34:14.265Z,100602.34
2023-02-15T00:36:41.724Z,100598.22
2023-02-15T00:39:08.777Z,100607.03
2023-02-15T00:41:36.539Z,100616.22
2023-02-15T00:44:04.809Z,100601.91
2023-02-15T00:46:34.627Z,100614.28
2023-02-15T00:49:01.629Z,100596.56
2023-02-15T00:51:29.025Z,100612.00
2023-02-15T00:53:56.520Z,100595.50
2023-02-15T00:56:23.585Z,100594.97
2023-02-15T00:58:50.429Z,100598.97
2023-02-15T01:01:20.399Z,100597.69
2023-02-15T01:03:47.888Z,100606.13
2023-02-15T01:06:16.488Z,100595.72
2023-02-15T01:08:45.060Z,100593.22
2023-02-15T01:11:23.033Z,100583.22
2023-02-15T01:13:56.673Z,100585.78
2023-02-15T01:16:25.796Z,100595.41
2023-02-15T01:18:52.819Z,100583.56
2023-02-15T01:21:22.873Z,100586.66
2023-02-15T01:23:50.273Z,100601.59
2023-02-15T01:26:17.812Z,100593.75
2023-02-15T01:28:45.348Z,100586.50
2023-02-15T01:31:16.061Z,100580.75
2023-02-15T01:33:46.523Z,100592.44
2023-02-15T01:36:13.766Z,100585.41
2023-02-15T01:38:41.152Z,100587.34
2023-02-15T01:41:29.852Z,100585.25
2023-02-15T01:44:02.767Z,100579.06
2023-02-15T01:46:46.562Z,100560.97
2023-02-15T01:49:17.746Z,100583.59
2023-02-15T01:51:48.480Z,100593.00
2023-02-15T01:54:45.925Z,100592.00
2023-02-15T01:57:17.977Z,100586.41
2023-02-15T01:59:49.713Z,100588.50
2023-02-15T02:02:21.822Z,100588.56
2023-02-15T02:04:50.839Z,100592.72
2023-02-15T02:07:21.794Z,100593.28
2023-02-15T02:09:49.786Z,100605.44
2023-02-15T02:12:19.120Z,100601.06
2023-02-15T02:14:48.236Z,100613.56
2023-02-15T02:18:08.300Z,100614.19
2023-02-15T02:20:54.046Z,100607.59
2023-02-15T02:23:20.834Z,100612.00
2023-02-15T02:25:47.524Z,100607.03
2023-02-15T02:28:39.488Z,100621.81
2023-02-15T02:31:43.250Z,100606.00
2023-02-15T02:34:28.670Z,100613.31
2023-02-15T02:37:25.725Z,100624.38
2023-02-15T02:40:01.599Z,100619.41
2023-02-15T02:42:41.203Z,100623.53
2023-02-15T02:45:33.372Z,100616.28
2023-02-15T02:48:07.411Z,100617.34
2023-02-15T02:50:34.582Z,100613.81
2023-02-15T02:53:01.484Z,100619.63
2023-02-15T02:55:53.251Z,100633.19
2023-02-15T02:58:46.062Z,100630.69
2023-02-15T03:01:23.592Z,100639.03
2023-02-15T03:03:56.844Z,100621.59
2023-02-15T03:06:36.953Z,100628.25
2023-02-15T03:09:42.778Z,100640.53
2023-02-15T03:12:15.808Z,100642.84
2023-02-15T03:14:52.906Z,100624.97
2023-02-15T03:17:27.513Z,100628.53
2023-02-15T03:19:58.857Z,100635.78
2023-02-15T03:22:39.351Z,100629.31
2023-02-15T03:25:26.416Z,100644.94
2023-02-15T03:28:02.328Z,100555.91
2023-02-15T03:30:31.333Z,100645.16
2023-02-15T03:33:01.106Z,100640.81
2023-02-15T03:35:46.821Z,100631.47
2023-02-15T03:38:18.878Z,100654.34
2023-02-15T03:41:06.829Z,100655.19
2023-02-15T03:43:54.409Z,100638.34
2023-02-15T03:46:45.967Z,100648.13
2023-02-15T03:49:25.748Z,100657.69
2023-02-15T03:51:56.641Z,100657.28
2023-02-15T03:54:46.048Z,100656.25
2023-02-15T03:57:34.282Z,100662.91
2023-02-15T04:00:22.680Z,100667.47
2023-02-15T04:03:10.267Z,100667.06
2023-02-15T04:05:37.571Z,100661.66
2023-02-15T04:08:04.981Z,100677.88
2023-02-15T04:10:50.264Z,100678.31
2023-02-15T04:13:17.235Z,100675.38
2023-02-15T04:16:03.103Z,100659.59
2023-02-15T04:19:14.912Z,100668.72
2023-02-15T04:22:00.621Z,100665.41
2023-02-15T04:24:46.092Z,100666.06
2023-02-15T04:27:13.152Z,100677.50
2023-02-15T04:29:40.148Z,100675.22
2023-02-15T04:32:07.794Z,100683.31
2023-02-15T04:34:34.909Z,100677.06
2023-02-15T04:37:01.860Z,100679.38
2023-02-15T04:39:29.029Z,100679.97
2023-02-15T04:41:55.869Z,100689.34
2023-02-15T04:44:22.764Z,100682.69
2023-02-15T04:46:49.706Z,100688.50
2023-02-15T04:49:16.970Z,100687.03
2023-02-15T04:51:43.808Z,100705.34
2023-02-15T04:54:10.752Z,100691.81
2023-02-15T04:56:38.926Z,100710.94
2023-02-15T04:59:06.123Z,100697.84
2023-02-15T05:01:32.958Z,100709.91
2023-02-15T05:04:00.561Z,100708.25
2023-02-15T05:06:27.339Z,100713.22
2023-02-15T05:08:54.462Z,100711.34
2023-02-15T05:11:21.441Z,100712.81
2023-02-15T05:13:48.339Z,100712.38
2023-02-15T05:16:15.697Z,100724.44
2023-02-15T05:18:42.764Z,100730.69
2023-02-15T05:21:09.846Z,100726.94
2023-02-15T05:23:37.341Z,100716.94
2023-02-15T05:26:23.115Z,100729.00
2023-02-15T05:28:50.249Z,100725.25
2023-02-15T05:31:20.840Z,100721.94
2023-02-15T05:33:49.016Z,100731.09
2023-02-15T05:36:15.885Z,100733.38
2023-02-15T05:38:42.994Z,100736.69
2023-02-15T05:41:11.614Z,100752.28
2023-02-15T05:43:39.690Z,100740.22
2023-02-15T05:46:07.615Z,100753.50
2023-02-15T05:48:35.732Z,100761.22
2023-02-15T05:51:08.562Z,100757.28
2023-02-15T05:53:38.389Z,100757.06
2023-02-15T05:56:06.859Z,100750.41
2023-02-15T05:58:40.288Z,100758.13
2023-02-15T06:01:12.125Z,100766.44
2023-02-15T06:03:39.781Z,100775.19
2023-02-15T06:06:07.845Z,100772.28
2023-02-15T06:08:36.298Z,100793.53
2023-02-15T06:11:03.705Z,100776.66
2023-02-15T06:13:31.621Z,100793.94
2023-02-15T06:15:58.619Z,100786.44
2023-02-15T06:18:26.884Z,100784.38
2023-02-15T06:20:54.464Z,100785.63
2023-02-15T06:23:21.889Z,100788.53
2023-02-15T06:25:48.866Z,100787.69
2023-02-15T06:28:16.039Z,100782.28
2023-02-15T06:30:44.239Z,100774.16
2023-02-15T06:33:11.566Z,100777.63
2023-02-15T06:35:38.490Z,100778.44
2023-02-15T06:38:05.527Z,100792.16
2023-02-15T06:40:32.281Z,100785.84
2023-02-15T06:42:59.281Z,100787.09
2023-02-15T06:45:26.299Z,100786.38
2023-02-15T06:47:53.320Z,100777.75
2023-02-15T06:50:20.253Z,100783.50
2023-02-15T06:52:47.581Z,100777.63
2023-02-15T06:55:16.772Z,100767.75
2023-02-15T06:57:43.568Z,100760.56
2023-02-15T07:00:10.930Z,100758.16
2023-02-15T07:02:38.119Z,100772.78
2023-02-15T07:05:06.477Z,100788.31
2023-02-15T07:07:33.843Z,100780.72
2023-02-15T07:10:00.673Z,100776.59
2023-02-15T07:12:46.935Z,100781.41
2023-02-15T07:15:21.745Z,100776.06
2023-02-15T07:17:49.571Z,100783.38
2023-02-15T07:20:22.594Z,100770.69
2023-02-15T07:22:50.524Z,100774.91
2023-02-15T07:25:17.834Z,100782.06
2023-02-15T07:27:46.266Z,100763.28
2023-02-15T07:30:16.467Z,100768.53
2023-02-15T07:33:05.282Z,100774.97
2023-02-15T07:35:33.346Z,100774.97
2023-02-15T07:38:00.510Z,100778.56
2023-02-15T07:40:27.439Z,100779.72
2023-02-15T07:42:55.957Z,100777.72
2023-02-15T07:45:23.450Z,100769.66
2023-02-15T07:47:50.360Z,100781.63
2023-02-15T07:50:17.646Z,100780.81
2023-02-15T07:52:45.808Z,100761.03
2023-02-15T07:55:14.098Z,100767.31
2023-02-15T07:57:47.793Z,100770.63
2023-02-15T08:00:16.874Z,100765.41
2023-02-15T08:03:11.061Z,100760.31
2023-02-15T08:05:38.929Z,100769.91
2023-02-15T08:08:06.711Z,100763.28
2023-02-15T08:10:52.918Z,100760.53
2023-02-15T08:13:19.934Z,100762.78
2023-02-15T08:15:51.284Z,100758.13
2023-02-15T08:18:18.364Z,100750.41
2023-02-15T08:20:50.974Z,100763.53
2023-02-15T08:23:17.886Z,100764.41
2023-02-15T08:25:44.923Z,100758.81
2023-02-15T08:28:12.263Z,100757.84
2023-02-15T08:30:39.058Z,100758.00
2023-02-15T08:33:05.980Z,100761.78
2023-02-15T08:35:32.789Z,100761.25
2023-02-15T08:37:59.671Z,100767.13
2023-02-15T08:40:26.528Z,100766.97
2023-02-15T08:42:53.511Z,100770.22
2023-02-15T08:45:20.370Z,100762.81
2023-02-15T08:47:47.563Z,100779.22
2023-02-15T08:50:14.595Z,100773.59
2023-02-15T08:52:42.058Z,100767.91
2023-02-15T08:55:08.992Z,100783.00
2023-02-15T08:57:36.727Z,100774.88
2023-02-15T09:00:06.196Z,100767.19
2023-02-15T09:02:33.669Z,100775.59
2023-02-15T09:05:00.598Z,100768.81
2023-02-15T09:07:27.656Z,100769.66
2023-02-15T09:09:54.409Z,100776.22
2023-02-15T09:12:21.419Z,100759.25
2023-02-15T09:14:48.301Z,100760.09
2023-02-15T09:17:16.157Z,100757.44
2023-02-15T09:19:43.021Z,100750.41
2023-02-15T09:22:10.722Z,100754.66
2023-02-15T09:24:37.618Z,100760.13
2023-02-15T09:27:04.549Z,100744.50
2023-02-15T09:29:31.447Z,100751.22
2023-02-15T09:31:58.318Z,100747.28
2023-02-15T09:34:25.349Z,100747.03
2023-02-15T09:36:52.989Z,100751.91
2023-02-15T09:39:21.779Z,100757.44
2023-02-15T09:42:08.961Z,100752.44
2023-02-15T09:45:18.602Z,100749.06
2023-02-15T09:48:18.465Z,100749.06
2023-02-15T09:51:11.421Z,100744.56
2023-02-15T09:53:53.782Z,100737.19
2023-02-15T09:56:26.601Z,100732.41
2023-02-15T09:59:21.006Z,100736.81
2023-02-15T10:02:25.906Z,100741.50
2023-02-15T10:05:16.426Z,100734.00
2023-02-15T10:08:09.784Z,100725.41
2023-02-15T10:10:42.528Z,100734.03
2023-02-15T10:13:31.892Z,100732.09
2023-02-15T10:16:10.966Z,100722.91
2023-02-15T10:18:40.672Z,100729.63
2023-02-15T10:21:11.256Z,100719.59
2023-02-15T10:24:02.762Z,100723.09
2023-02-15T10:26:35.100Z,100724.28
2023-02-15T10:29:18.397Z,100723.78
2023-02-15T10:31:59.035Z,100715.09
2023-02-15T10:34:40.407Z,100705.13
2023-02-15T10:37:23.403Z,100704.09
2023-02-15T10:39:59.473Z,100697.78
2023-02-15T10:43:00.777Z,100700.53
2023-02-15T10:45:47.036Z,100699.22
2023-02-15T10:48:20.206Z,100696.25
2023-02-15T10:50:58.166Z,100688.38
2023-02-15T10:53:45.211Z,100693.28
2023-02-15T10:56:30.572Z,100700.88
2023-02-15T10:59:16.482Z,100645.91
2023-02-15T11:01:43.690Z,100683.75
2023-02-15T11:04:38.476Z,100692.34
2023-02-15T11:07:28.037Z,100686.38
2023-02-15T11:10:18.380Z,100690.16
2023-02-15T11:12:48.334Z,100678.88
2023-02-15T11:15:29.187Z,100665.34
2023-02-15T11:18:20.725Z,100678.00
2023-02-15T11:20:57.338Z,100657.97
2023-02-15T11:23:27.802Z,100676.28
2023-02-15T11:26:01.365Z,100666.16
2023-02-15T11:28:37.887Z,100661.03
2023-02-15T11:31:17.009Z,100663.16
2023-02-15T11:33:48.838Z,100667.47
2023-02-15T11:36:23.950Z,100648.06
2023-02-15T11:38:59.110Z,100643.19
2023-02-15T11:41:33.154Z,100653.94
2023-02-15T11:44:09.606Z,100657.34
2023-02-15T11:46:38.333Z,100659.59
2023-02-15T11:49:35.155Z,100661.09
2023-02-15T11:52:06.082Z,100643.50
2023-02-15T11:54:37.077Z,100651.50
2023-02-15T11:57:17.135Z,100643.38
2023-02-15T11:59:51.790Z,100647.53
2023-02-15T12:02:23.549Z,100643.16
2023-02-15T12:05:08.200Z,100634.34
2023-02-15T12:07:45.148Z,100613.84
2023-02-15T12:10:35.060Z,100624.63
2023-02-15T12:13:18.902Z,100631.25
2023-02-15T12:15:56.184Z,100634.25
2023-02-15T12:18:42.356Z,100620.00
2023-02-15T12:21:31.661Z,100629.09
2023-02-15T12:24:05.409Z,100610.97
2023-02-15T12:26:36.198Z,100615.94
2023-02-15T12:29:16.338Z,100617.59
2023-02-15T12:31:47.647Z,100611.00
2023-02-15T12:34:27.647Z,100615.94
2023-02-15T12:37:00.590Z,100612.09
2023-02-15T12:39:32.392Z,100603.31
2023-02-15T12:42:01.660Z,100616.72
2023-02-15T12:44:38.121Z,100621.41
2023-02-15T12:47:05.126Z,100614.50
2023-02-15T12:49:38.817Z,100607.63
2023-02-15T12:52:24.063Z,100611.22
2023-02-15T12:54:51.927Z,100594.75
2023-02-15T12:57:35.375Z,100612.31
2023-02-15T13:00:06.998Z,100582.94
2023-02-15T13:02:48.794Z,100612.06
2023-02-15T13:05:44.076Z,100610.41
2023-02-15T13:08:20.363Z,100616.19
2023-02-15T13:11:10.867Z,100609.34
2023-02-15T13:14:19.078Z,100616.47
2023-02-15T13:16:48.744Z,100608.50
2023-02-15T13:19:27.501Z,100612.91
2023-02-15T13:21:57.882Z,100598.09
2023-02-15T13:24:33.476Z,100604.41
2023-02-15T13:27:14.500Z,100599.19
2023-02-15T13:29:45.858Z,100597.81
2023-02-15T13:32:34.908Z,100604.13
2023-02-15T13:35:06.125Z,100596.38
2023-02-15T13:37:43.632Z,100597.28
2023-02-15T13:40:20.878Z,100592.28
2023-02-15T13:43:01.041Z,100588.75
2023-02-15T13:45:40.178Z,100597.28
2023-02-15T13:48:45.017Z,100585.75
2023-02-15T13:51:45.666Z,100586.78
2023-02-15T13:54:43.363Z,100595.06
2023-02-15T13:57:28.571Z,100584.63
2023-02-15T14:00:29.517Z,100588.47
2023-02-15T14:03:40.383Z,100595.03
2023-02-15T14:06:26.101Z,100595.53
2023-02-15T14:09:42.408Z,100596.91
2023-02-15T14:12:24.840Z,100598.56
2023-02-15T14:15:09.822Z,100581.56
2023-02-15T14:18:38.246Z,100594.75
2023-02-15T14:21:27.804Z,100583.16
2023-02-15T14:24:00.726Z,100588.38
2023-02-15T14:26:47.424Z,100593.03
2023-02-15T14:30:38.107Z,100584.75
2023-02-15T14:33:32.628Z,100600.09
2023-02-15T14:36:01.897Z,100592.94
2023-02-15T14:39:31.298Z,100601.47
2023-02-15T14:42:21.731Z,100594.56
2023-02-15T14:45:02.524Z,100601.94
2023-02-15T14:47:37.543Z,100608.22
2023-02-15T14:50:34.755Z,100609.06
2023-02-15T14:53:23.978Z,100604.88
2023-02-15T14:56:08.563Z,100559.00
2023-02-15T14:58:36.194Z,100608.75
2023-02-15T15:01:11.478Z,100613.38
2023-02-15T15:03:57.403Z,100608.91
2023-02-15T15:06:31.517Z,100621.81
2023-02-15T15:09:23.577Z,100610.28
2023-02-15T15:11:52.898Z,100598.72
2023-02-15T15:14:35.179Z,100600.34
2023-02-15T15:17:05.089Z,100602.72
2023-02-15T15:19:52.240Z,100608.41
2023-02-15T15:22:30.618Z,100591.34
2023-02-15T15:25:05.393Z,100615.22
2023-02-15T15:27:55.707Z,100617.66
2023-02-15T15:31:00.638Z,100613.75
2023-02-15T15:34:11.414Z,100612.31
2023-02-15T15:37:09.202Z,100607.94
2023-02-15T15:39:54.628Z,100613.09
2023-02-15T15:42:39.411Z,100601.25
2023-02-15T15:45:27.471Z,100610.31
2023-02-15T15:48:14.596Z,100602.28
2023-02-15T15:50:42.786Z,100606.63
2023-02-15T15:53:22.418Z,100600.47
2023-02-15T15:55:55.185Z,100602.91
2023-02-15T15:58:23.863Z,100608.06
2023-02-15T16:01:00.506Z,100621.16
2023-02-15T16:03:29.306Z,100621.91
2023-02-15T16:06:01.409Z,100611.69
2023-02-15T16:08:34.983Z,100616.47
2023-02-15T16:11:12.055Z,100619.53
2023-02-15T16:13:42.338Z,100624.41
2023-02-15T16:16:09.696Z,100634.47
2023-02-15T16:18:43.366Z,100639.91
2023-02-15T16:21:35.687Z,100631.78
2023-02-15T16:24:18.633Z,100646.59
2023-02-15T16:27:04.707Z,100631.88
2023-02-15T16:29:34.204Z,100640.91
2023-02-15T16:32:07.740Z,100633.72
2023-02-15T16:34:34.802Z,100655.81
2023-02-15T16:37:19.406Z,100649.69
2023-02-15T16:39:49.131Z,100661.38
2023-02-15T16:42:17.967Z,100662.28
2023-02-15T16:44:53.379Z,100655.56
2023-02-15T16:47:28.221Z,100662.28
2023-02-15T16:50:00.732Z,100663.88
2023-02-15T16:52:29.127Z,100674.19
2023-02-15T16:54:59.261Z,100656.56
2023-02-15T16:57:34.041Z,100662.91
2023-02-15T17:00:18.007Z,100656.69
2023-02-15T17:02:56.917Z,100675.44
2023-02-15T17:05:24.308Z,100652.25
2023-02-15T17:08:05.946Z,100648.03
2023-02-15T17:10:40.222Z,100653.72
2023-02-15T17:13:18.000Z,100658.00
2023-02-15T17:16:06.113Z,100657.47
2023-02-15T17:18:44.711Z,100660.09
2023-02-15T17:21:17.789Z,100660.22
2023-02-15T17:23:48.368Z,100663.44
2023-02-15T17:26:27.857Z,100658.59
2023-02-15T17:29:11.976Z,100658.38
2023-02-15T17:31:39.505Z,100667.84
2023-02-15T17:34:06.859Z,100668.69
2023-02-15T17:36:33.797Z,100663.41
2023-02-15T17:39:06.672Z,100676.78
2023-02-15T17:41:35.852Z,100667.19
2023-02-15T17:44:04.000Z,100672.25
2023-02-15T17:46:37.238Z,100665.50
2023-02-15T17:49:05.390Z,100670.22
2023-02-15T17:51:33.368Z,100679.09
2023-02-15T17:54:19.135Z,100668.44
2023-02-15T17:56:46.298Z,100666.63
2023-02-15T17:59:14.356Z,100684.13
2023-02-15T18:02:07.204Z,100679.28
2023-02-15T18:04:56.224Z,100678.06
2023-02-15T18:07:42.459Z,100684.22
2023-02-15T18:10:37.248Z,100685.13
2023-02-15T18:13:04.753Z,100691.94
2023-02-15T18:15:31.930Z,100687.19
2023-02-15T18:18:03.264Z,100698.97
2023-02-15T18:20:37.268Z,100697.78
2023-02-15T18:23:04.278Z,100694.53
2023-02-15T18:25:31.103Z,100672.75
2023-02-15T18:27:57.954Z,100697.19
2023-02-15T18:30:27.738Z,100690.47
2023-02-15T18:32:57.328Z,100701.34
2023-02-15T18:35:28.626Z,100702.16
2023-02-15T18:37:55.444Z,100704.88
2023-02-15T18:40:27.423Z,100702.63
2023-02-15T18:42:57.030Z,100689.94
2023-02-15T18:45:32.985Z,100700.22
2023-02-15T18:48:00.314Z,100696.66
2023-02-15T18:50:31.291Z,100692.63
2023-02-15T18:52:58.883Z,100700.63
2023-02-15T18:55:28.088Z,100697.53
2023-02-15T18:57:57.417Z,100708.00
2023-02-15T19:00:28.886Z,100709.50
2023-02-15T19:02:59.452Z,100706.88
2023-02-15T19:05:28.484Z,100704.22
2023-02-15T19:07:57.380Z,100700.50
2023-02-15T19:10:27.203Z,100701.94
2023-02-15T19:12:55.947Z,100708.66
2023-02-15T19:15:28.492Z,100701.41
2023-02-15T19:17:55.563Z,100701.69
2023-02-15T19:20:29.891Z,100692.41
2023-02-15T19:22:58.374Z,100685.59
2023-02-15T19:25:31.545Z,100691.41
2023-02-15T19:27:58.946Z,100716.38
2023-02-15T19:30:32.335Z,100703.47
2023-02-15T19:33:00.067Z,100698.66
2023-02-15T19:35:31.829Z,100698.72
2023-02-15T19:38:06.265Z,100675.38
2023-02-15T19:40:35.875Z,100708.88
2023-02-15T19:43:03.965Z,100708.69
2023-02-15T19:45:33.001Z,100707.91
2023-02-15T19:48:02.981Z,100721.88
2023-02-15T19:50:33.448Z,100698.13
2023-02-15T19:53:02.866Z,100691.31
2023-02-15T19:55:37.996Z,100706.31
2023-02-15T19:58:12.148Z,100681.44
2023-02-15T20:00:39.922Z,100705.56
2023-02-15T20:03:06.725Z,100687.94
2023-02-15T20:05:38.320Z,100703.13
2023-02-15T20:08:10.176Z,100709.84
2023-02-15T20:10:37.178Z,100706.09
2023-02-15T20:13:04.081Z,100704.00
2023-02-15T20:15:34.547Z,100700.00
2023-02-15T20:18:04.455Z,100707.75
2023-02-15T20:20:51.772Z,100716.94
2023-02-15T20:23:35.766Z,100713.19
2023-02-15T20:26:14.038Z,100712.16
2023-02-15T20:28:41.141Z,100702.75
2023-02-15T20:31:14.834Z,100685.31
2023-02-15T20:33:42.120Z,100697.16
2023-02-15T20:36:17.141Z,100710.28
2023-02-15T20:38:44.764Z,100708.44
2023-02-15T20:41:37.208Z,100711.97
2023-02-15T20:44:35.842Z,100714.75
2023-02-15T20:47:02.883Z,100714.97
2023-02-15T20:49:29.689Z,100707.50
2023-02-15T20:51:57.331Z,100716.22
2023-02-15T20:54:27.235Z,100712.88
2023-02-15T20:56:57.318Z,100695.66
2023-02-15T20:59:27.496Z,100709.75
2023-02-15T21:01:59.317Z,100710.41
2023-02-15T21:04:32.363Z,100712.25
2023-02-15T21:07:00.726Z,100699.59
2023-02-15T21:09:28.264Z,100707.06
2023-02-15T21:11:58.274Z,100701.69
2023-02-15T21:14:27.294Z,100702.34
2023-02-15T21:16:54.204Z,100704.84
2023-02-15T21:19:24.523Z,100705.06
2023-02-15T21:21:53.338Z,100704.22
2023-02-15T21:24:26.925Z,100693.63
2023-02-15T21:26:55.114Z,100706.50
2023-02-15T21:29:28.044Z,100709.22
2023-02-15T21:31:55.305Z,100692.16
2023-02-15T21:34:22.116Z,100694.25
2023-02-15T21:36:50.826Z,100703.84
2023-02-15T21:39:29.533Z,100695.78
2023-02-15T21:42:15.110Z,100703.28
2023-02-15T21:45:00.909Z,100709.75
2023-02-15T21:47:48.720Z,100700.56
2023-02-15T21:50:40.031Z,100695.19
2023-02-15T21:53:10.735Z,100702.28
2023-02-15T21:55:37.724Z,100703.31
2023-02-15T21:58:05.989Z,100696.06
2023-02-15T22:00:34.109Z,100693.19
2023-02-15T22:03:01.999Z,100698.78
2023-02-15T22:05:33.233Z,100708.94
2023-02-15T22:08:00.818Z,100711.03
2023-02-15T22:10:31.619Z,100710.41
2023-02-15T22:13:02.416Z,100708.53
2023-02-15T22:15:37.204Z,100707.72
2023-02-15T22:18:05.572Z,100712.31
2023-02-15T22:20:32.528Z,100710.00
2023-02-15T22:22:59.518Z,100679.28
2023-02-15T22:25:27.415Z,100709.03
2023-02-15T22:27:55.009Z,100704.84
2023-02-15T22:30:29.577Z,100704.66
2023-02-15T22:32:57.644Z,100708.59
2023-02-15T22:35:33.056Z,100707.38
2023-02-15T22:38:00.447Z,100706.31
2023-02-15T22:40:33.527Z,100705.41
2023-02-15T22:43:03.095Z,100706.06
2023-02-15T22:45:31.478Z,100694.25
2023-02-15T22:48:00.816Z,100700.72
2023-02-15T22:50:32.571Z,100701.75
2023-02-15T22:53:01.356Z,100706.94
2023-02-15T22:55:33.799Z,100704.88
2023-02-15T22:58:01.150Z,100699.88
2023-02-15T23:00:32.311Z,100696.16
2023-02-15T23:02:59.093Z,100711.75
2023-02-15T23:05:28.940Z,100709.47
2023-02-15T23:07:56.227Z,100705.31
2023-02-15T23:10:26.112Z,100706.75
2023-02-15T23:13:14.680Z,100703.44
2023-02-15T23:15:43.538Z,100704.06
2023-02-15T23:18:20.577Z,100709.06
2023-02-15T23:20:52.357Z,100705.94
2023-02-15T23:23:24.927Z,100707.41
2023-02-15T23:25:52.015Z,100694.94
2023-02-15T23:28:22.065Z,100690.78
2023-02-15T23:30:49.693Z,100704.09
2023-02-15T23:33:19.237Z,100678.75
2023-02-15T23:35:46.378Z,100694.97
2023-02-15T23:38:28.731Z,100707.19
2023-02-15T23:41:19.831Z,100707.41
2023-02-15T23:44:04.791Z,100702.00
2023-02-15T23:46:46.899Z,100706.78
2023-02-15T23:49:16.601Z,100705.94
2023-02-15T23:51:52.085Z,100696.63
2023-02-15T23:54:21.631Z,100702.03
2023-02-15T23:56:55.177Z,100703.47
2023-02-15T23:59:25.395Z,100703.66
